sensor_id;sensor_type;location;lat;lon;timestamp;pressure;altitude;pressure_sealevel;temperature;humidity
55590;BME280;41452;42.780;23.116;2023-01-28T00:02:05;93674.53;;;-1.61;100.00
55590;BME280;41452;42.780;23.116;2023-01-28T00:04:31;93693.28;;;-1.52;100.00
55590;BME280;41452;42.780;23.116;2023-01-28T00:06:56;93667.53;;;-1.76;100.00
55590;BME280;41452;42.780;23.116;2023-01-28T00:09:22;93696.03;;;-1.54;100.00
55590;BME280;41452;42.780;23.116;2023-01-28T00:11:47;93698.78;;;-1.56;100.00
55590;BME280;41452;42.780;23.116;2023-01-28T00:14:12;93678.28;;;-1.72;100.00
55590;BME280;41452;42.780;23.116;2023-01-28T00:16:38;93706.50;;;-1.56;100.00
55590;BME280;41452;42.780;23.116;2023-01-28T00:19:03;93707.81;;;-1.60;100.00
55590;BME280;41452;42.780;23.116;2023-01-28T00:21:29;93709.41;;;-1.59;100.00
55590;BME280;41452;42.780;23.116;2023-01-28T00:23:55;93705.06;;;-1.58;100.00
55590;BME280;41452;42.780;23.116;2023-01-28T00:26:22;93697.56;;;-1.68;100.00
55590;BME280;41452;42.780;23.116;2023-01-28T00:28:48;93695.69;;;-1.74;100.00
55590;BME280;41452;42.780;23.116;2023-01-28T00:31:17;93711.75;;;-1.72;100.00
55590;BME280;41452;42.780;23.116;2023-01-28T00:33:45;93707.75;;;-1.75;100.00
55590;BME280;41452;42.780;23.116;2023-01-28T00:36:12;93713.53;;;-1.73;100.00
55590;BME280;41452;42.780;23.116;2023-01-28T00:38:37;93716.91;;;-1.72;100.00
55590;BME280;41452;42.780;23.116;2023-01-28T00:41:08;93708.06;;;-1.78;100.00
55590;BME280;41452;42.780;23.116;2023-01-28T00:43:35;93723.72;;;-1.79;100.00
55590;BME280;41452;42.780;23.116;2023-01-28T00:46:00;93730.44;;;-1.78;100.00
55590;BME280;41452;42.780;23.116;2023-01-28T00:48:26;93720.16;;;-1.78;100.00
55590;BME280;41452;42.780;23.116;2023-01-28T00:50:51;93723.06;;;-1.81;100.00
55590;BME280;41452;42.780;23.116;2023-01-28T00:53:17;93723.34;;;-1.76;100.00
55590;BME280;41452;42.780;23.116;2023-01-28T00:55:42;93731.72;;;-1.74;100.00
55590;BME280;41452;42.780;23.116;2023-01-28T00:58:07;93705.44;;;-1.93;100.00
55590;BME280;41452;42.780;23.116;2023-01-28T01:00:33;93727.88;;;-1.78;100.00
55590;BME280;41452;42.780;23.116;2023-01-28T01:02:58;93734.47;;;-1.76;100.00
55590;BME280;41452;42.780;23.116;2023-01-28T01:05:24;93728.97;;;-1.73;100.00
55590;BME280;41452;42.780;23.116;2023-01-28T01:07:49;93728.81;;;-1.71;100.00
55590;BME280;41452;42.780;23.116;2023-01-28T01:10:18;93729.78;;;-1.72;100.00
55590;BME280;41452;42.780;23.116;2023-01-28T01:12:48;93726.91;;;-1.77;100.00
55590;BME280;41452;42.780;23.116;2023-01-28T01:15:14;93728.34;;;-1.75;100.00
55590;BME280;41452;42.780;23.116;2023-01-28T01:17:43;93728.50;;;-1.76;100.00
55590;BME280;41452;42.780;23.116;2023-01-28T01:20:13;93715.34;;;-1.81;100.00
55590;BME280;41452;42.780;23.116;2023-01-28T01:22:39;93735.41;;;-1.68;100.00
55590;BME280;41452;42.780;23.116;2023-01-28T01:25:06;93732.66;;;-1.67;100.00
55590;BME280;41452;42.780;23.116;2023-01-28T01:27:32;93731.84;;;-1.67;100.00
55590;BME280;41452;42.780;23.116;2023-01-28T01:29:58;93666.59;;;-2.06;100.00
55590;BME280;41452;42.780;23.116;2023-01-28T01:32:24;93738.44;;;-1.65;100.00
55590;BME280;41452;42.780;23.116;2023-01-28T01:34:50;93738.28;;;-1.63;100.00
55590;BME280;41452;42.780;23.116;2023-01-28T01:37:15;93741.97;;;-1.66;100.00
55590;BME280;41452;42.780;23.116;2023-01-28T01:39:41;93741.66;;;-1.71;100.00
55590;BME280;41452;42.780;23.116;2023-01-28T01:42:12;93743.13;;;-1.68;100.00
55590;BME280;41452;42.780;23.116;2023-01-28T01:47:41;93738.47;;;-1.73;100.00
55590;BME280;41452;42.780;23.116;2023-01-28T01:50:32;93743.50;;;-1.80;100.00
55590;BME280;41452;42.780;23.116;2023-01-28T01:53:07;93739.16;;;-1.79;100.00
55590;BME280;41452;42.780;23.116;2023-01-28T01:55:34;93736.22;;;-1.76;100.00
55590;BME280;41452;42.780;23.116;2023-01-28T01:58:04;93710.91;;;-1.96;100.00
55590;BME280;41452;42.780;23.116;2023-01-28T02:00:31;93747.00;;;-1.73;100.00
55590;BME280;41452;42.780;23.116;2023-01-28T02:02:56;93745.44;;;-1.82;100.00
55590;BME280;41452;42.780;23.116;2023-01-28T02:05:23;93749.63;;;-1.81;100.00
55590;BME280;41452;42.780;23.116;2023-01-28T02:07:50;93745.91;;;-1.78;100.00
55590;BME280;41452;42.780;23.116;2023-01-28T02:10:19;93753.00;;;-1.80;100.00
55590;BME280;41452;42.780;23.116;2023-01-28T02:12:52;93746.22;;;-1.81;100.00
55590;BME280;41452;42.780;23.116;2023-01-28T02:15:23;93759.63;;;-1.86;100.00
55590;BME280;41452;42.780;23.116;2023-01-28T02:17:50;93750.91;;;-1.85;100.00
55590;BME280;41452;42.780;23.116;2023-01-28T02:20:24;93750.75;;;-1.83;100.00
55590;BME280;41452;42.780;23.116;2023-01-28T02:26:12;93752.66;;;-1.77;100.00
55590;BME280;41452;42.780;23.116;2023-01-28T02:34:14;93759.19;;;-1.66;100.00
55590;BME280;41452;42.780;23.116;2023-01-28T02:39:19;93756.78;;;-1.68;100.00
55590;BME280;41452;42.780;23.116;2023-01-28T02:42:03;93751.63;;;-1.68;100.00
55590;BME280;41452;42.780;23.116;2023-01-28T02:44:30;93688.16;;;-2.07;100.00
55590;BME280;41452;42.780;23.116;2023-01-28T02:46:56;93753.06;;;-1.65;100.00
55590;BME280;41452;42.780;23.116;2023-01-28T02:50:04;93743.63;;;-1.73;100.00
55590;BME280;41452;42.780;23.116;2023-01-28T02:52:47;93715.09;;;-1.95;100.00
55590;BME280;41452;42.780;23.116;2023-01-28T03:01:18;93757.50;;;-1.82;100.00
55590;BME280;41452;42.780;23.116;2023-01-28T03:06:32;93764.22;;;-1.73;100.00
55590;BME280;41452;42.780;23.116;2023-01-28T03:09:05;93762.25;;;-1.71;100.00
55590;BME280;41452;42.780;23.116;2023-01-28T03:11:59;93760.31;;;-1.69;100.00
55590;BME280;41452;42.780;23.116;2023-01-28T03:14:57;93764.53;;;-1.76;100.00
55590;BME280;41452;42.780;23.116;2023-01-28T03:17:51;93767.28;;;-1.78;100.00
55590;BME280;41452;42.780;23.116;2023-01-28T03:20:55;93763.28;;;-1.80;100.00
55590;BME280;41452;42.780;23.116;2023-01-28T03:24:04;93771.34;;;-1.83;100.00
55590;BME280;41452;42.780;23.116;2023-01-28T03:30:11;93766.44;;;-2.01;100.00
55590;BME280;41452;42.780;23.116;2023-01-28T03:32:57;93769.31;;;-1.96;100.00
55590;BME280;41452;42.780;23.116;2023-01-28T03:35:42;93770.56;;;-1.92;100.00
55590;BME280;41452;42.780;23.116;2023-01-28T03:38:27;93772.97;;;-1.91;100.00
55590;BME280;41452;42.780;23.116;2023-01-28T03:41:07;93773.81;;;-1.90;100.00
55590;BME280;41452;42.780;23.116;2023-01-28T03:43:33;93774.91;;;-1.93;100.00
55590;BME280;41452;42.780;23.116;2023-01-28T03:45:59;93774.59;;;-1.89;100.00
55590;BME280;41452;42.780;23.116;2023-01-28T03:48:27;93780.03;;;-1.84;100.00
55590;BME280;41452;42.780;23.116;2023-01-28T03:50:55;93786.94;;;-1.85;100.00
55590;BME280;41452;42.780;23.116;2023-01-28T03:53:21;93784.25;;;-1.92;100.00
55590;BME280;41452;42.780;23.116;2023-01-28T03:55:48;93782.66;;;-1.93;100.00
55590;BME280;41452;42.780;23.116;2023-01-28T03:58:15;93787.50;;;-1.98;100.00
55590;BME280;41452;42.780;23.116;2023-01-28T04:00:40;93783.66;;;-2.02;100.00
55590;BME280;41452;42.780;23.116;2023-01-28T04:03:11;93790.75;;;-2.04;100.00
55590;BME280;41452;42.780;23.116;2023-01-28T04:05:45;93787.81;;;-2.01;100.00
55590;BME280;41452;42.780;23.116;2023-01-28T04:08:12;93792.69;;;-2.06;100.00
55590;BME280;41452;42.780;23.116;2023-01-28T04:10:38;93786.09;;;-2.08;100.00
55590;BME280;41452;42.780;23.116;2023-01-28T04:13:05;93785.16;;;-2.16;100.00
55590;BME280;41452;42.780;23.116;2023-01-28T04:15:30;93805.53;;;-2.06;100.00
55590;BME280;41452;42.780;23.116;2023-01-28T04:17:56;93800.03;;;-2.03;100.00
55590;BME280;41452;42.780;23.116;2023-01-28T04:20:21;93810.69;;;-2.06;100.00
55590;BME280;41452;42.780;23.116;2023-01-28T04:22:47;93803.00;;;-2.14;100.00
55590;BME280;41452;42.780;23.116;2023-01-28T04:25:12;93802.19;;;-2.15;100.00
55590;BME280;41452;42.780;23.116;2023-01-28T04:27:37;93807.81;;;-2.11;100.00
55590;BME280;41452;42.780;23.116;2023-01-28T04:30:03;93812.31;;;-2.13;100.00
55590;BME280;41452;42.780;23.116;2023-01-28T04:32:28;93818.44;;;-2.14;100.00
55590;BME280;41452;42.780;23.116;2023-01-28T04:34:54;93826.31;;;-2.16;100.00
55590;BME280;41452;42.780;23.116;2023-01-28T04:37:19;93819.38;;;-2.15;100.00
55590;BME280;41452;42.780;23.116;2023-01-28T04:39:45;93817.47;;;-2.13;100.00
55590;BME280;41452;42.780;23.116;2023-01-28T04:42:10;93826.78;;;-2.12;100.00
55590;BME280;41452;42.780;23.116;2023-01-28T04:44:35;93819.91;;;-2.20;100.00
55590;BME280;41452;42.780;23.116;2023-01-28T04:47:01;93826.47;;;-2.17;100.00
55590;BME280;41452;42.780;23.116;2023-01-28T04:49:26;93812.97;;;-2.27;100.00
55590;BME280;41452;42.780;23.116;2023-01-28T04:51:51;93775.75;;;-2.56;100.00
55590;BME280;41452;42.780;23.116;2023-01-28T04:54:17;93843.53;;;-2.16;100.00
55590;BME280;41452;42.780;23.116;2023-01-28T04:56:42;93834.66;;;-2.14;100.00
55590;BME280;41452;42.780;23.116;2023-01-28T04:59:07;93837.38;;;-2.15;100.00
55590;BME280;41452;42.780;23.116;2023-01-28T05:01:33;93841.91;;;-2.09;100.00
55590;BME280;41452;42.780;23.116;2023-01-28T05:03:58;93844.63;;;-2.11;100.00
55590;BME280;41452;42.780;23.116;2023-01-28T05:06:29;93834.34;;;-2.11;100.00
55590;BME280;41452;42.780;23.116;2023-01-28T05:08:55;93840.28;;;-2.10;100.00
55590;BME280;41452;42.780;23.116;2023-01-28T05:11:20;93849.63;;;-2.09;100.00
55590;BME280;41452;42.780;23.116;2023-01-28T05:13:46;93848.81;;;-2.09;100.00
55590;BME280;41452;42.780;23.116;2023-01-28T05:16:11;93856.53;;;-2.09;100.00
55590;BME280;41452;42.780;23.116;2023-01-28T05:18:36;93855.25;;;-2.14;100.00
55590;BME280;41452;42.780;23.116;2023-01-28T05:21:02;93853.78;;;-2.08;100.00
55590;BME280;41452;42.780;23.116;2023-01-28T05:23:27;93864.88;;;-2.07;100.00
55590;BME280;41452;42.780;23.116;2023-01-28T05:25:53;93862.16;;;-2.06;100.00
55590;BME280;41452;42.780;23.116;2023-01-28T05:28:18;93864.06;;;-2.08;100.00
55590;BME280;41452;42.780;23.116;2023-01-28T05:30:43;93873.25;;;-2.05;100.00
55590;BME280;41452;42.780;23.116;2023-01-28T05:33:09;93858.16;;;-2.17;100.00
55590;BME280;41452;42.780;23.116;2023-01-28T05:35:34;93868.09;;;-2.14;100.00
55590;BME280;41452;42.780;23.116;2023-01-28T05:38:01;93876.34;;;-2.18;100.00
55590;BME280;41452;42.780;23.116;2023-01-28T05:40:26;93876.97;;;-2.16;100.00
55590;BME280;41452;42.780;23.116;2023-01-28T05:42:51;93871.34;;;-2.20;100.00
55590;BME280;41452;42.780;23.116;2023-01-28T05:45:17;93879.22;;;-2.21;100.00
55590;BME280;41452;42.780;23.116;2023-01-28T05:47:42;93862.69;;;-2.27;100.00
55590;BME280;41452;42.780;23.116;2023-01-28T05:50:08;93879.69;;;-2.18;100.00
55590;BME280;41452;42.780;23.116;2023-01-28T05:52:34;93882.75;;;-2.22;100.00
55590;BME280;41452;42.780;23.116;2023-01-28T05:54:59;93885.63;;;-2.17;100.00
55590;BME280;41452;42.780;23.116;2023-01-28T05:57:25;93893.19;;;-2.16;100.00
55590;BME280;41452;42.780;23.116;2023-01-28T05:59:51;93892.88;;;-2.21;100.00
55590;BME280;41452;42.780;23.116;2023-01-28T06:02:16;93837.81;;;-2.59;100.00
55590;BME280;41452;42.780;23.116;2023-01-28T06:04:41;93898.84;;;-2.28;100.00
55590;BME280;41452;42.780;23.116;2023-01-28T06:07:07;93904.00;;;-2.28;100.00
55590;BME280;41452;42.780;23.116;2023-01-28T06:09:32;93899.16;;;-2.32;100.00
55590;BME280;41452;42.780;23.116;2023-01-28T06:11:57;93898.84;;;-2.28;100.00
55590;BME280;41452;42.780;23.116;2023-01-28T06:14:23;93907.19;;;-2.26;100.00
55590;BME280;41452;42.780;23.116;2023-01-28T06:16:48;93910.72;;;-2.27;100.00
55590;BME280;41452;42.780;23.116;2023-01-28T06:19:16;93870.88;;;-2.56;100.00
55590;BME280;41452;42.780;23.116;2023-01-28T06:21:41;93925.69;;;-2.23;100.00
55590;BME280;41452;42.780;23.116;2023-01-28T06:24:07;93931.00;;;-2.24;100.00
55590;BME280;41452;42.780;23.116;2023-01-28T06:26:33;93929.06;;;-2.39;100.00
55590;BME280;41452;42.780;23.116;2023-01-28T06:28:58;93921.69;;;-2.34;100.00
55590;BME280;41452;42.780;23.116;2023-01-28T06:31:23;93916.22;;;-2.31;100.00
55590;BME280;41452;42.780;23.116;2023-01-28T06:33:49;93931.16;;;-2.26;100.00
55590;BME280;41452;42.780;23.116;2023-01-28T06:36:14;93931.16;;;-2.34;100.00
55590;BME280;41452;42.780;23.116;2023-01-28T06:38:39;93941.59;;;-2.27;100.00
55590;BME280;41452;42.780;23.116;2023-01-28T06:41:05;93946.09;;;-2.21;100.00
55590;BME280;41452;42.780;23.116;2023-01-28T06:43:30;93945.78;;;-2.26;100.00
55590;BME280;41452;42.780;23.116;2023-01-28T06:45:57;93946.44;;;-2.33;100.00
55590;BME280;41452;42.780;23.116;2023-01-28T06:48:23;93956.88;;;-2.34;100.00
55590;BME280;41452;42.780;23.116;2023-01-28T06:50:49;93962.50;;;-2.31;100.00
55590;BME280;41452;42.780;23.116;2023-01-28T06:53:15;93958.47;;;-2.33;100.00
55590;BME280;41452;42.780;23.116;2023-01-28T06:55:41;93961.53;;;-2.30;100.00
55590;BME280;41452;42.780;23.116;2023-01-28T06:58:07;93928.09;;;-2.54;100.00
55590;BME280;41452;42.780;23.116;2023-01-28T07:00:33;93964.09;;;-2.30;100.00
55590;BME280;41452;42.780;23.116;2023-01-28T07:02:58;93950.91;;;-2.35;100.00
55590;BME280;41452;42.780;23.116;2023-01-28T07:05:24;93971.19;;;-2.23;100.00
55590;BME280;41452;42.780;23.116;2023-01-28T07:07:49;93944.66;;;-2.40;100.00
55590;BME280;41452;42.780;23.116;2023-01-28T07:10:15;93977.47;;;-2.18;100.00
55590;BME280;41452;42.780;23.116;2023-01-28T07:12:40;93981.13;;;-2.20;100.00
55590;BME280;41452;42.780;23.116;2023-01-28T07:15:06;93977.94;;;-2.22;100.00
55590;BME280;41452;42.780;23.116;2023-01-28T07:17:32;93980.50;;;-2.22;100.00
55590;BME280;41452;42.780;23.116;2023-01-28T07:19:57;93984.22;;;-2.17;100.00
55590;BME280;41452;42.780;23.116;2023-01-28T07:22:22;93986.47;;;-2.14;100.00
55590;BME280;41452;42.780;23.116;2023-01-28T07:24:48;93993.72;;;-2.09;100.00
55590;BME280;41452;42.780;23.116;2023-01-28T07:27:14;93993.72;;;-2.09;100.00
55590;BME280;41452;42.780;23.116;2023-01-28T07:29:39;94002.69;;;-2.05;100.00
55590;BME280;41452;42.780;23.116;2023-01-28T07:32:04;93997.56;;;-2.05;100.00
55590;BME280;41452;42.780;23.116;2023-01-28T07:34:32;94002.84;;;-2.06;100.00
55590;BME280;41452;42.780;23.116;2023-01-28T07:36:57;93999.50;;;-1.99;100.00
55590;BME280;41452;42.780;23.116;2023-01-28T07:39:23;93998.19;;;-1.95;100.00
55590;BME280;41452;42.780;23.116;2023-01-28T07:41:48;94001.41;;;-1.93;100.00
55590;BME280;41452;42.780;23.116;2023-01-28T07:44:14;94006.06;;;-1.96;100.00
55590;BME280;41452;42.780;23.116;2023-01-28T07:46:39;94011.88;;;-1.86;100.00
55590;BME280;41452;42.780;23.116;2023-01-28T07:49:04;94012.34;;;-1.82;100.00
55590;BME280;41452;42.780;23.116;2023-01-28T07:51:30;94009.13;;;-1.84;100.00
55590;BME280;41452;42.780;23.116;2023-01-28T07:53:56;93997.88;;;-2.08;100.00
55590;BME280;41452;42.780;23.116;2023-01-28T07:56:21;94021.66;;;-1.81;100.00
55590;BME280;41452;42.780;23.116;2023-01-28T07:58:50;94026.97;;;-1.75;100.00
55590;BME280;41452;42.780;23.116;2023-01-28T08:01:15;94023.63;;;-1.92;100.00
55590;BME280;41452;42.780;23.116;2023-01-28T08:03:40;94029.06;;;-1.78;100.00
55590;BME280;41452;42.780;23.116;2023-01-28T08:06:06;94036.00;;;-1.70;100.00
55590;BME280;41452;42.780;23.116;2023-01-28T08:08:31;94035.53;;;-1.74;100.00
55590;BME280;41452;42.780;23.116;2023-01-28T08:10:56;94026.97;;;-1.66;100.00
55590;BME280;41452;42.780;23.116;2023-01-28T08:13:22;94031.47;;;-1.60;100.00
55590;BME280;41452;42.780;23.116;2023-01-28T08:15:47;94038.22;;;-1.59;100.00
55590;BME280;41452;42.780;23.116;2023-01-28T08:18:14;94037.75;;;-1.63;100.00
55590;BME280;41452;42.780;23.116;2023-01-28T08:20:41;94041.75;;;-1.60;100.00
55590;BME280;41452;42.780;23.116;2023-01-28T08:23:14;94047.38;;;-1.57;100.00
55590;BME280;41452;42.780;23.116;2023-01-28T08:25:40;94014.59;;;-1.71;100.00
55590;BME280;41452;42.780;23.116;2023-01-28T08:28:06;94048.69;;;-1.52;100.00
55590;BME280;41452;42.780;23.116;2023-01-28T08:30:32;94050.44;;;-1.45;100.00
55590;BME280;41452;42.780;23.116;2023-01-28T08:32:59;94048.03;;;-1.46;100.00
55590;BME280;41452;42.780;23.116;2023-01-28T08:35:26;94053.84;;;-1.52;100.00
55590;BME280;41452;42.780;23.116;2023-01-28T08:37:52;94054.94;;;-1.39;100.00
55590;BME280;41452;42.780;23.116;2023-01-28T08:40:18;94018.28;;;-1.57;100.00
55590;BME280;41452;42.780;23.116;2023-01-28T08:42:48;94054.13;;;-1.31;100.00
55590;BME280;41452;42.780;23.116;2023-01-28T08:45:14;94054.13;;;-1.39;100.00
55590;BME280;41452;42.780;23.116;2023-01-28T08:47:53;94046.41;;;-1.39;100.00
55590;BME280;41452;42.780;23.116;2023-01-28T08:50:20;93989.19;;;-1.74;100.00
55590;BME280;41452;42.780;23.116;2023-01-28T08:52:47;94047.88;;;-1.37;100.00
55590;BME280;41452;42.780;23.116;2023-01-28T08:55:14;94054.63;;;-1.44;100.00
55590;BME280;41452;42.780;23.116;2023-01-28T08:57:39;94064.44;;;-1.39;100.00
55590;BME280;41452;42.780;23.116;2023-01-28T09:00:06;94063.31;;;-1.37;100.00
55590;BME280;41452;42.780;23.116;2023-01-28T09:02:32;94067.16;;;-1.41;100.00
55590;BME280;41452;42.780;23.116;2023-01-28T09:04:57;94065.09;;;-1.45;100.00
55590;BME280;41452;42.780;23.116;2023-01-28T09:07:23;94041.47;;;-1.74;100.00
55590;BME280;41452;42.780;23.116;2023-01-28T09:09:48;94061.72;;;-1.54;100.00
55590;BME280;41452;42.780;23.116;2023-01-28T09:12:14;94072.81;;;-1.54;100.00
55590;BME280;41452;42.780;23.116;2023-01-28T09:14:41;94073.47;;;-1.51;100.00
55590;BME280;41452;42.780;23.116;2023-01-28T09:17:06;94066.69;;;-1.44;100.00
55590;BME280;41452;42.780;23.116;2023-01-28T09:19:31;94068.63;;;-1.38;100.00
55590;BME280;41452;42.780;23.116;2023-01-28T09:21:57;94067.34;;;-1.42;100.00
55590;BME280;41452;42.780;23.116;2023-01-28T09:24:22;94067.66;;;-1.29;100.00
55590;BME280;41452;42.780;23.116;2023-01-28T09:26:48;94061.84;;;-1.31;100.00
55590;BME280;41452;42.780;23.116;2023-01-28T09:29:14;94063.59;;;-1.23;100.00
55590;BME280;41452;42.780;23.116;2023-01-28T09:31:40;94058.91;;;-1.20;100.00
55590;BME280;41452;42.780;23.116;2023-01-28T09:34:06;94057.69;;;-1.40;100.00
55590;BME280;41452;42.780;23.116;2023-01-28T09:36:31;94058.81;;;-1.43;100.00
55590;BME280;41452;42.780;23.116;2023-01-28T09:38:57;94053.13;;;-1.30;100.00
55590;BME280;41452;42.780;23.116;2023-01-28T09:44:06;94061.69;;;-1.29;100.00
55590;BME280;41452;42.780;23.116;2023-01-28T09:46:39;94061.22;;;-1.33;100.00
55590;BME280;41452;42.780;23.116;2023-01-28T09:49:37;94055.38;;;-1.19;100.00
55590;BME280;41452;42.780;23.116;2023-01-28T09:52:12;94053.59;;;-1.18;100.00
55590;BME280;41452;42.780;23.116;2023-01-28T09:54:50;94060.69;;;-1.20;100.00
55590;BME280;41452;42.780;23.116;2023-01-28T09:57:22;94063.28;;;-1.20;100.00
55590;BME280;41452;42.780;23.116;2023-01-28T09:59:49;94058.91;;;-1.20;100.00
55590;BME280;41452;42.780;23.116;2023-01-28T10:08:05;94057.63;;;-1.16;100.00
55590;BME280;41452;42.780;23.116;2023-01-28T10:16:55;94056.34;;;-1.20;100.00
55590;BME280;41452;42.780;23.116;2023-01-28T10:19:29;94047.03;;;-1.21;100.00
55590;BME280;41452;42.780;23.116;2023-01-28T10:22:06;94056.03;;;-1.25;100.00
55590;BME280;41452;42.780;23.116;2023-01-28T10:24:59;94049.28;;;-1.26;100.00
55590;BME280;41452;42.780;23.116;2023-01-28T10:27:31;94048.13;;;-1.23;100.00
55590;BME280;41452;42.780;23.116;2023-01-28T10:30:15;94057.81;;;-1.25;100.00
55590;BME280;41452;42.780;23.116;2023-01-28T10:35:25;94027.38;;;-1.30;100.00
55590;BME280;41452;42.780;23.116;2023-01-28T10:37:59;94052.91;;;-1.04;100.00
55590;BME280;41452;42.780;23.116;2023-01-28T10:40:26;94056.13;;;-1.02;100.00
55590;BME280;41452;42.780;23.116;2023-01-28T10:42:51;94057.13;;;-1.03;100.00
55590;BME280;41452;42.780;23.116;2023-01-28T10:45:21;94057.44;;;-0.98;100.00
55590;BME280;41452;42.780;23.116;2023-01-28T10:47:53;94051.81;;;-1.09;100.00
55590;BME280;41452;42.780;23.116;2023-01-28T10:50:26;94052.09;;;-0.96;100.00
55590;BME280;41452;42.780;23.116;2023-01-28T10:52:58;94017.03;;;-1.13;100.00
55590;BME280;41452;42.780;23.116;2023-01-28T10:55:30;94064.88;;;-0.71;100.00
55590;BME280;41452;42.780;23.116;2023-01-28T10:57:56;94048.44;;;-0.70;100.00
55590;BME280;41452;42.780;23.116;2023-01-28T11:00:25;94056.97;;;-0.70;100.00
55590;BME280;41452;42.780;23.116;2023-01-28T11:02:51;94031.25;;;-0.78;100.00
55590;BME280;41452;42.780;23.116;2023-01-28T11:05:27;94036.19;;;-0.68;100.00
55590;BME280;41452;42.780;23.116;2023-01-28T11:08:04;94058.06;;;-0.56;100.00
55590;BME280;41452;42.780;23.116;2023-01-28T11:10:35;94050.91;;;-0.46;100.00
55590;BME280;41452;42.780;23.116;2023-01-28T11:13:04;94058.97;;;-0.49;100.00
55590;BME280;41452;42.780;23.116;2023-01-28T11:15:30;94042.72;;;-0.49;100.00
55590;BME280;41452;42.780;23.116;2023-01-28T11:18:01;94027.53;;;-0.75;100.00
55590;BME280;41452;42.780;23.116;2023-01-28T11:20:32;94044.66;;;-0.51;100.00
55590;BME280;41452;42.780;23.116;2023-01-28T11:22:59;94024.25;;;-0.69;100.00
55590;BME280;41452;42.780;23.116;2023-01-28T11:25:32;94053.22;;;-0.59;100.00
55590;BME280;41452;42.780;23.116;2023-01-28T11:28:00;94050.03;;;-0.69;100.00
55590;BME280;41452;42.780;23.116;2023-01-28T11:30:29;94043.53;;;-0.57;100.00
55590;BME280;41452;42.780;23.116;2023-01-28T11:33:07;94042.53;;;-0.48;100.00
55590;BME280;41452;42.780;23.116;2023-01-28T11:35:38;94019.75;;;-0.67;100.00
55590;BME280;41452;42.780;23.116;2023-01-28T11:38:16;94041.16;;;-0.59;100.00
55590;BME280;41452;42.780;23.116;2023-01-28T11:40:52;94036.06;;;-0.44;100.00
55590;BME280;41452;42.780;23.116;2023-01-28T11:43:26;94044.47;;;-0.50;100.00
55590;BME280;41452;42.780;23.116;2023-01-28T11:49:27;94031.41;;;-0.48;100.00
55590;BME280;41452;42.780;23.116;2023-01-28T11:54:11;94041.97;;;-0.66;100.00
55590;BME280;41452;42.780;23.116;2023-01-28T11:56:48;94037.81;;;-0.67;100.00
55590;BME280;41452;42.780;23.116;2023-01-28T12:26:11;94036.13;;;-0.91;100.00
55590;BME280;41452;42.780;23.116;2023-01-28T12:43:47;94053.28;;;-0.67;100.00
55590;BME280;41452;42.780;23.116;2023-01-28T12:45:56;94049.09;;;-0.77;100.00
55590;BME280;41452;42.780;23.116;2023-01-28T12:48:33;94053.44;;;-0.69;100.00
55590;BME280;41452;42.780;23.116;2023-01-28T12:51:09;94047.66;;;-0.71;100.00
55590;BME280;41452;42.780;23.116;2023-01-28T12:56:23;94055.19;;;-0.69;100.00
55590;BME280;41452;42.780;23.116;2023-01-28T13:04:18;94064.31;;;-0.90;100.00
55590;BME280;41452;42.780;23.116;2023-01-28T13:06:49;94067.22;;;-0.85;100.00
55590;BME280;41452;42.780;23.116;2023-01-28T13:09:19;94077.53;;;-0.85;100.00
55590;BME280;41452;42.780;23.116;2023-01-28T13:11:46;94085.28;;;-0.93;100.00
55590;BME280;41452;42.780;23.116;2023-01-28T13:14:12;94068.06;;;-1.09;100.00
55590;BME280;41452;42.780;23.116;2023-01-28T13:16:38;94006.81;;;-1.46;100.00
55590;BME280;41452;42.780;23.116;2023-01-28T13:19:24;94084.66;;;-1.03;100.00
55590;BME280;41452;42.780;23.116;2023-01-28T13:22:12;94082.38;;;-0.98;100.00
55590;BME280;41452;42.780;23.116;2023-01-28T13:24:49;94063.75;;;-1.17;100.00
55590;BME280;41452;42.780;23.116;2023-01-28T13:27:22;94085.31;;;-1.09;100.00
55590;BME280;41452;42.780;23.116;2023-01-28T13:29:59;94085.16;;;-1.16;100.00
55590;BME280;41452;42.780;23.116;2023-01-28T13:32:31;94090.00;;;-1.13;100.00
55590;BME280;41452;42.780;23.116;2023-01-28T13:34:59;94092.91;;;-1.16;100.00
55590;BME280;41452;42.780;23.116;2023-01-28T13:37:31;94077.28;;;-1.23;100.00
55590;BME280;41452;42.780;23.116;2023-01-28T13:40:16;94101.25;;;-1.06;100.00
55590;BME280;41452;42.780;23.116;2023-01-28T13:43:00;94104.63;;;-1.05;100.00
55590;BME280;41452;42.780;23.116;2023-01-28T13:45:26;94111.09;;;-1.09;100.00
55590;BME280;41452;42.780;23.116;2023-01-28T13:47:58;94105.94;;;-1.09;100.00
55590;BME280;41452;42.780;23.116;2023-01-28T13:50:33;94109.47;;;-1.10;100.00
55590;BME280;41452;42.780;23.116;2023-01-28T13:53:06;94094.03;;;-1.19;100.00
55590;BME280;41452;42.780;23.116;2023-01-28T13:55:41;94120.75;;;-1.11;100.00
55590;BME280;41452;42.780;23.116;2023-01-28T14:09:34;94124.97;;;-1.19;100.00
55590;BME280;41452;42.780;23.116;2023-01-28T14:20:03;94129.97;;;-1.17;100.00
55590;BME280;41452;42.780;23.116;2023-01-28T14:22:29;94133.34;;;-1.25;100.00
55590;BME280;41452;42.780;23.116;2023-01-28T14:24:58;94130.28;;;-1.28;100.00
55590;BME280;41452;42.780;23.116;2023-01-28T14:27:35;94144.94;;;-1.21;100.00
55590;BME280;41452;42.780;23.116;2023-01-28T14:32:33;94149.63;;;-1.24;100.00
55590;BME280;41452;42.780;23.116;2023-01-28T14:35:05;94151.03;;;-1.30;100.00
55590;BME280;41452;42.780;23.116;2023-01-28T14:37:33;94150.41;;;-1.24;100.00
55590;BME280;41452;42.780;23.116;2023-01-28T14:40:07;94144.28;;;-1.23;100.00
55590;BME280;41452;42.780;23.116;2023-01-28T14:42:42;94152.16;;;-1.16;100.00
55590;BME280;41452;42.780;23.116;2023-01-28T14:59:17;94164.25;;;-1.25;100.00
55590;BME280;41452;42.780;23.116;2023-01-28T15:01:46;94168.78;;;-1.27;100.00
55590;BME280;41452;42.780;23.116;2023-01-28T15:04:35;94178.91;;;-1.25;100.00
55590;BME280;41452;42.780;23.116;2023-01-28T15:07:18;94174.56;;;-1.25;100.00